Time;durP1;ratioP1;P1;durP2;ratioP2;P2;SDS_P1;SDS_P2;PMS_P1;PMS_P2;Temp;Humidity;BMP_temperature;BMP_pressure;BME280_temperature;BME280_humidity;BME280_pressure;Samples;Min_cycle;Max_cycle;Signal;HPM_P1;HPM_P2
2023/04/28 00:01:07;;;;;;;14.80;9.07;;;;;;;8.90;74.10;101152.63;5324249;28;20269;-68
2023/04/28 00:03:39;;;;;;;11.77;9.77;;;;;;;8.94;72.88;101146.56;5325666;28;20063;-68
2023/04/28 00:06:10;;;;;;;13.70;10.27;;;;;;;8.93;76.20;101147.44;5325307;28;20028;-69
2023/04/28 00:08:42;;;;;;;13.20;9.97;;;;;;;8.79;73.38;101146.56;5324102;28;20031;-68
2023/04/28 00:11:13;;;;;;;16.47;11.80;;;;;;;8.78;75.61;101143.09;5325281;28;20432;-68
2023/04/28 00:13:45;;;;;;;15.07;10.90;;;;;;;8.97;74.13;101138.78;5325519;28;20089;-68
2023/04/28 00:16:16;;;;;;;12.23;10.33;;;;;;;9.00;73.62;101137.88;5325359;28;20035;-68
2023/04/28 00:18:47;;;;;;;16.23;11.20;;;;;;;8.84;77.35;101137.91;5325413;28;20043;-68
2023/04/28 00:21:19;;;;;;;19.07;11.43;;;;;;;8.76;79.00;101124.91;5325435;28;20023;-68
2023/04/28 00:23:50;;;;;;;13.87;11.10;;;;;;;8.76;78.72;101119.72;5325782;28;20027;-68
2023/04/28 00:26:21;;;;;;;18.30;11.73;;;;;;;8.64;80.58;101111.03;5325543;28;20043;-69
2023/04/28 00:28:53;;;;;;;18.03;13.37;;;;;;;8.63;83.27;101117.97;5323752;28;20035;-68
2023/04/28 00:31:24;;;;;;;18.60;12.53;;;;;;;8.61;84.02;101124.03;5325695;28;20024;-68
2023/04/28 00:33:55;;;;;;;15.83;12.27;;;;;;;8.55;84.80;101119.72;5325244;28;20039;-68
2023/04/28 00:36:30;;;;;;;17.63;11.97;;;;;;;8.44;85.72;101100.66;5324893;28;20059;-70
2023/04/28 00:39:02;;;;;;;16.02;12.38;;;;;;;8.48;87.20;101095.44;5325029;28;20470;-68
2023/04/28 00:41:33;;;;;;;15.13;12.67;;;;;;;8.38;87.77;101091.06;5325268;28;20065;-68
2023/04/28 00:44:05;;;;;;;14.83;12.23;;;;;;;8.19;88.58;101080.66;5325275;28;20078;-68
2023/04/28 00:46:36;;;;;;;18.47;13.23;;;;;;;8.23;90.05;101078.94;5325280;28;20024;-68
2023/04/28 00:49:09;;;;;;;16.93;11.90;;;;;;;8.18;90.11;101083.25;5325263;28;20035;-68
2023/04/28 00:51:40;;;;;;;;;;;;;;;8.37;86.37;101078.94;5324482;28;20023;-68
2023/04/28 00:54:15;;;;;;;17.17;12.18;;;;;;;8.15;89.07;101078.91;5325146;28;19919;-69
2023/04/28 00:56:47;;;;;;;18.27;12.07;;;;;;;8.11;90.94;101063.31;5325224;28;20032;-68
2023/04/28 00:59:19;;;;;;;15.55;12.57;;;;;;;7.94;90.68;101064.16;5325139;28;20032;-68
2023/04/28 01:01:50;;;;;;;16.63;12.43;;;;;;;7.89;91.48;101058.09;5325093;28;20058;-68
2023/04/28 01:04:22;;;;;;;15.90;12.43;;;;;;;8.04;91.25;101060.72;5325166;28;20032;-68
2023/04/28 01:06:55;;;;;;;19.73;14.52;;;;;;;8.04;92.05;101065.91;5324765;28;20019;-68
2023/04/28 01:09:26;;;;;;;22.75;13.70;;;;;;;8.02;93.05;101056.41;5325161;28;20028;-68
2023/04/28 01:11:57;;;;;;;17.03;13.07;;;;;;;7.88;92.49;101064.13;5324779;28;20047;-68
2023/04/28 01:14:29;;;;;;;14.93;12.03;;;;;;;7.86;93.25;101065.88;5325145;28;20059;-68
2023/04/28 01:17:00;;;;;;;16.50;13.57;;;;;;;7.77;93.98;101058.91;5323885;28;20481;-68
2023/04/28 01:19:32;;;;;;;18.83;14.60;;;;;;;7.83;95.67;101051.16;5326204;28;20042;-68
2023/04/28 01:22:03;;;;;;;19.03;13.43;;;;;;;7.65;94.85;101035.53;5328713;28;20034;-68
2023/04/28 01:24:35;;;;;;;17.70;13.53;;;;;;;7.67;95.49;101024.28;5328914;28;20374;-68
2023/04/28 01:27:06;;;;;;;19.87;14.50;;;;;;;7.69;95.47;101028.63;5328732;28;20024;-68
2023/04/28 01:29:37;;;;;;;16.20;13.40;;;;;;;7.64;95.10;101021.69;5310481;28;20126;-68
2023/04/28 01:32:09;;;;;;;15.50;13.37;;;;;;;7.79;96.10;101028.66;5328704;27;20336;-68
2023/04/28 01:34:40;;;;;;;17.90;13.33;;;;;;;7.69;95.64;101026.03;5328651;28;20481;-68
2023/04/28 01:37:12;;;;;;;15.03;11.77;;;;;;;7.67;95.93;101021.69;5328091;27;20093;-68
2023/04/28 01:39:43;;;;;;;19.90;14.33;;;;;;;7.67;96.63;101024.28;5328782;27;20039;-68
2023/04/28 01:42:14;;;;;;;18.07;14.33;;;;;;;7.65;96.77;101015.63;5327141;28;20062;-69
2023/04/28 01:44:46;;;;;;;19.53;14.40;;;;;;;7.66;97.07;101017.38;5328314;28;20062;-68
2023/04/28 01:47:17;;;;;;;18.73;13.83;;;;;;;7.67;97.15;101015.63;5328404;27;20114;-69
2023/04/28 01:49:49;;;;;;;16.10;13.03;;;;;;;7.66;96.18;101012.19;5327048;28;20027;-70
2023/04/28 01:52:21;;;;;;;17.47;15.20;;;;;;;7.68;95.93;101012.19;5326922;28;20046;-69
2023/04/28 01:54:53;;;;;;;18.48;13.00;;;;;;;7.78;97.29;101013.94;5328122;28;20023;-69
2023/04/28 01:57:27;;;;;;;18.02;13.70;;;;;;;7.77;97.39;101012.19;5328348;28;20057;-69
2023/04/28 01:59:59;;;;;;;16.98;13.75;;;;;;;7.73;97.36;101004.41;5327953;28;20359;-68
2023/04/28 02:02:30;;;;;;;15.73;13.70;;;;;;;7.75;97.88;101006.16;5327584;27;20039;-69
2023/04/28 02:05:02;;;;;;;14.97;12.73;;;;;;;7.75;97.90;101000.94;5327854;28;20035;-68
2023/04/28 02:07:33;;;;;;;18.13;14.87;;;;;;;7.72;98.48;101002.69;5327186;28;20031;-68
2023/04/28 02:10:05;;;;;;;17.53;13.80;;;;;;;7.72;98.25;101006.13;5327833;28;20084;-68
2023/04/28 02:12:36;;;;;;;16.38;13.48;;;;;;;7.87;97.78;101009.63;5327402;28;20055;-69
2023/04/28 02:15:08;;;;;;;17.03;14.23;;;;;;;7.80;97.81;101012.22;5327828;28;20064;-68
2023/04/28 02:17:40;;;;;;;20.77;16.00;;;;;;;7.81;98.06;101002.72;5327695;28;20070;-68
2023/04/28 02:20:13;;;;;;;19.10;15.03;;;;;;;7.85;98.20;100992.31;5327795;27;20027;-68
2023/04/28 02:22:44;;;;;;;17.08;14.95;;;;;;;7.78;97.99;100989.72;5327372;28;20035;-69
2023/04/28 02:25:16;;;;;;;16.40;14.60;;;;;;;7.83;98.85;100990.59;5327456;28;20471;-66
2023/04/28 02:27:47;;;;;;;18.73;15.33;;;;;;;7.77;97.54;100985.38;5327439;27;20090;-66
2023/04/28 02:30:18;;;;;;;17.67;15.00;;;;;;;7.83;96.82;100982.81;5327468;28;20069;-67
2023/04/28 02:32:50;;;;;;;22.17;14.53;;;;;;;7.81;95.94;100968.97;5327141;28;20028;-67
2023/04/28 02:35:22;;;;;;;17.93;14.57;;;;;;;7.91;96.42;100960.31;5327244;28;20037;-68
2023/04/28 02:37:53;;;;;;;18.87;15.10;;;;;;;7.85;95.87;100942.16;5325479;28;20073;-68
2023/04/28 02:40:24;;;;;;;17.13;14.00;;;;;;;7.84;95.90;100936.09;5326804;28;20035;-67
2023/04/28 02:42:56;;;;;;;17.40;15.03;;;;;;;7.90;95.64;100926.56;5308755;28;20031;-67
2023/04/28 02:45:27;;;;;;;20.53;15.47;;;;;;;7.87;96.54;100906.66;5327045;28;20066;-68
2023/04/28 02:48:02;;;;;;;17.97;14.80;;;;;;;7.85;95.41;100914.44;5326881;28;20065;-66
2023/04/28 02:50:33;;;;;;;19.15;15.38;;;;;;;7.75;95.47;100899.75;5326895;28;20031;-67
2023/04/28 02:53:05;;;;;;;18.40;14.67;;;;;;;7.71;95.68;100892.84;5325574;28;20023;-67
2023/04/28 02:55:36;;;;;;;17.47;15.20;;;;;;;7.69;95.70;100907.53;5326509;28;20081;-68
2023/04/28 02:58:08;;;;;;;20.33;16.03;;;;;;;7.74;96.23;100923.97;5325568;28;20035;-67
2023/04/28 03:00:39;;;;;;;21.80;18.10;;;;;;;7.78;95.83;100924.84;5326976;28;20092;-68
2023/04/28 03:03:11;;;;;;;19.03;15.17;;;;;;;7.84;95.69;100919.63;5325535;28;20020;-67
2023/04/28 03:05:42;;;;;;;19.13;17.00;;;;;;;7.87;95.77;100919.63;5326385;28;20036;-67
2023/04/28 03:08:14;;;;;;;20.80;15.00;;;;;;;7.90;95.98;100911.00;5326193;28;20531;-67
2023/04/28 03:10:45;;;;;;;20.77;14.80;;;;;;;7.92;95.84;100917.94;5325216;28;20058;-67
2023/04/28 03:13:16;;;;;;;23.63;15.73;;;;;;;7.90;96.59;100917.06;5326559;28;20055;-67
2023/04/28 03:15:48;;;;;;;19.57;16.20;;;;;;;7.84;97.03;100920.53;5325061;28;20024;-68
2023/04/28 03:18:19;;;;;;;23.77;17.10;;;;;;;7.89;97.97;100917.94;5326436;28;20023;-67
2023/04/28 03:20:51;;;;;;;22.13;15.90;;;;;;;7.89;98.31;100909.25;5326390;28;20100;-68
2023/04/28 03:23:22;;;;;;;19.07;16.27;;;;;;;8.00;99.61;100910.13;5326085;28;20032;-68
2023/04/28 03:25:53;;;;;;;21.27;16.07;;;;;;;8.06;98.13;100911.88;5326229;28;20032;-68
2023/04/28 03:28:25;;;;;;;18.90;15.70;;;;;;;8.06;96.70;100923.13;5326259;28;20020;-68
2023/04/28 03:30:56;;;;;;;18.67;14.73;;;;;;;8.07;96.13;100908.41;5324925;28;20036;-68
2023/04/28 03:33:28;;;;;;;16.53;14.33;;;;;;;8.07;95.16;100921.41;5326201;28;20031;-68
2023/04/28 03:35:59;;;;;;;22.97;15.47;;;;;;;8.20;94.84;100916.19;5325733;28;20355;-68
2023/04/28 03:38:31;;;;;;;19.40;15.27;;;;;;;8.13;94.33;100909.28;5326062;28;20112;-68
2023/04/28 03:41:02;;;;;;;19.30;14.83;;;;;;;8.09;94.56;100902.34;5325995;28;20059;-68
2023/04/28 03:43:36;;;;;;;20.20;14.67;;;;;;;8.17;95.27;100898.00;5323992;28;20031;-68
2023/04/28 03:46:07;;;;;;;18.55;14.82;;;;;;;8.10;95.50;100898.91;5325969;28;20459;-68
2023/04/28 03:48:38;;;;;;;19.13;14.63;;;;;;;8.15;96.49;100901.50;5325629;28;20027;-68
2023/04/28 03:51:10;;;;;;;20.37;15.67;;;;;;;8.08;96.89;100894.56;5324455;28;20428;-68
2023/04/28 03:53:41;;;;;;;21.07;16.87;;;;;;;8.20;97.92;100902.34;5325839;28;20517;-68
2023/04/28 03:56:13;;;;;;;21.70;16.30;;;;;;;8.14;98.04;100898.00;5325858;28;20031;-68
2023/04/28 03:58:44;;;;;;;19.97;16.43;;;;;;;8.20;99.15;100891.97;5324594;28;20028;-68
2023/04/28 04:01:16;;;;;;;17.43;15.57;;;;;;;8.20;99.98;100885.03;5325351;28;20035;-68
2023/04/28 04:03:47;;;;;;;18.90;16.13;;;;;;;8.16;100.00;100882.44;5325236;28;20394;-68
2023/04/28 04:06:20;;;;;;;22.33;16.63;;;;;;;8.13;100.00;100879.84;5325347;28;20023;-68
2023/04/28 04:08:51;;;;;;;;;;;;;;;8.27;98.93;100882.41;5326077;28;20023;-67
2023/04/28 04:11:23;;;;;;;20.00;15.93;;;;;;;8.18;100.00;100880.72;5325067;28;19938;-67
2023/04/28 04:13:54;;;;;;;19.93;15.63;;;;;;;8.17;100.00;100882.44;5325604;28;20356;-68
2023/04/28 04:16:25;;;;;;;18.50;16.50;;;;;;;8.25;100.00;100885.03;5325624;28;20035;-67
2023/04/28 04:18:57;;;;;;;20.00;16.13;;;;;;;8.24;100.00;100885.88;5325529;28;20040;-67
2023/04/28 04:21:28;;;;;;;19.43;16.07;;;;;;;8.22;100.00;100877.22;5325919;28;20059;-67
2023/04/28 04:24:00;;;;;;;20.40;16.17;;;;;;;8.33;100.00;100880.66;5325259;28;20039;-67
2023/04/28 04:26:31;;;;;;;18.67;15.20;;;;;;;8.32;100.00;100883.28;5325466;28;20057;-67
2023/04/28 04:29:03;;;;;;;23.77;15.83;;;;;;;8.34;100.00;100876.34;5325345;28;20035;-67
2023/04/28 04:31:34;;;;;;;24.20;17.50;;;;;;;8.43;99.90;100870.28;5325142;28;20119;-67
2023/04/28 04:34:06;;;;;;;17.63;15.13;;;;;;;8.48;98.49;100876.34;5325422;28;20057;-67
2023/04/28 04:36:37;;;;;;;20.93;15.17;;;;;;;8.47;97.44;100874.59;5324964;28;20075;-68
2023/04/28 04:39:08;;;;;;;23.03;14.93;;;;;;;8.45;97.75;100872.00;5325226;28;20035;-68
2023/04/28 04:41:41;;;;;;;18.93;15.20;;;;;;;8.49;97.92;100867.69;5325259;28;20031;-68
2023/04/28 04:44:12;;;;;;;17.80;15.95;;;;;;;8.46;98.34;100855.56;5325103;28;20061;-68
2023/04/28 04:46:44;;;;;;;19.80;15.90;;;;;;;8.50;98.18;100856.41;5325030;28;20027;-68
2023/04/28 04:49:16;;;;;;;21.17;16.20;;;;;;;8.50;98.71;100846.91;5324901;28;20428;-67
2023/04/28 04:51:48;;;;;;;23.07;16.43;;;;;;;8.55;97.96;100839.94;5324822;28;20028;-67
2023/04/28 04:54:19;;;;;;;18.10;14.73;;;;;;;8.54;97.69;100833.00;5326118;28;20024;-67
2023/04/28 04:56:51;;;;;;;21.87;16.47;;;;;;;8.61;98.04;100833.00;5328573;28;20486;-67
2023/04/28 04:59:22;;;;;;;19.97;15.37;;;;;;;8.56;98.15;100838.22;5329044;27;20039;-67
2023/04/28 05:01:54;;;;;;;19.70;15.63;;;;;;;8.65;98.34;100840.78;5327647;28;20038;-68
2023/04/28 05:04:25;;;;;;;19.93;16.23;;;;;;;8.67;99.38;100839.03;5328937;28;20085;-67
2023/04/28 05:06:56;;;;;;;18.43;15.00;;;;;;;8.70;98.14;100839.03;5328197;28;20028;-67
2023/04/28 05:09:29;;;;;;;21.90;15.47;;;;;;;8.76;97.85;100849.41;5327271;28;20032;-67
2023/04/28 05:12:00;;;;;;;;;;;;;;;8.93;97.09;100848.44;5328811;28;20112;-67
2023/04/28 05:14:32;;;;;;;18.98;15.70;;;;;;;8.96;97.95;100835.44;5328993;28;19923;-67
2023/04/28 05:17:03;;;;;;;19.73;15.00;;;;;;;9.02;98.25;100835.41;5328674;28;20031;-67
2023/04/28 05:19:35;;;;;;;19.43;14.83;;;;;;;9.00;97.57;100831.97;5328808;27;20028;-67
2023/04/28 05:22:06;;;;;;;18.13;15.83;;;;;;;9.01;97.81;100836.25;5328517;28;20035;-67
2023/04/28 05:24:38;;;;;;;21.97;15.63;;;;;;;9.02;97.97;100843.22;5328740;28;20378;-67
2023/04/28 05:27:09;;;;;;;20.47;15.37;;;;;;;9.07;97.70;100835.38;5328763;28;20035;-67
2023/04/28 05:29:41;;;;;;;17.90;14.47;;;;;;;9.15;97.49;100840.53;5328511;28;20024;-67
2023/04/28 05:32:12;;;;;;;17.63;14.90;;;;;;;9.15;96.52;100844.00;5328456;28;20039;-67
2023/04/28 05:34:43;;;;;;;19.30;14.53;;;;;;;9.20;96.51;100842.22;5328362;28;20067;-67
2023/04/28 05:37:15;;;;;;;18.43;14.87;;;;;;;9.18;96.78;100837.94;5327887;28;20043;-67
2023/04/28 05:39:46;;;;;;;20.20;15.07;;;;;;;9.22;96.91;100842.22;5328247;28;20031;-67
2023/04/28 05:42:17;;;;;;;18.50;15.83;;;;;;;9.19;96.83;100840.50;5328138;28;20028;-67
2023/04/28 05:44:49;;;;;;;19.13;15.27;;;;;;;9.30;96.77;100835.22;5326826;28;20040;-67
2023/04/28 05:47:20;;;;;;;19.47;14.37;;;;;;;9.35;96.75;100841.25;5328089;28;20039;-67
2023/04/28 05:49:52;;;;;;;18.03;15.47;;;;;;;9.50;96.82;100837.72;5328016;28;20067;-67
2023/04/28 05:52:23;;;;;;;19.47;15.13;;;;;;;9.61;96.30;100842.81;5328105;27;20419;-67
2023/04/28 05:54:54;;;;;;;20.60;15.03;;;;;;;9.73;95.70;100840.13;5327903;28;20498;-67
2023/04/28 05:57:26;;;;;;;19.63;15.00;;;;;;;9.83;95.31;100835.69;5327702;28;20501;-67
2023/04/28 05:59:57;;;;;;;26.47;16.23;;;;;;;9.89;94.74;100833.03;5327928;28;20375;-67
2023/04/28 06:02:29;;;;;;;24.97;15.13;;;;;;;9.91;94.82;100830.41;5327761;28;20035;-67
2023/04/28 06:05:00;;;;;;;16.50;12.90;;;;;;;9.96;94.99;100824.28;5325803;28;20486;-67
2023/04/28 06:07:31;;;;;;;15.87;14.17;;;;;;;9.99;94.68;100823.41;5326315;28;20046;-67
2023/04/28 06:10:04;;;;;;;17.20;13.93;;;;;;;10.04;94.81;100835.47;5327228;28;20053;-67
2023/04/28 06:12:36;;;;;;;;;;;;;;;10.25;94.03;100833.53;5327949;28;20533;-67
2023/04/28 06:15:07;;;;;;;21.85;14.18;;;;;;;10.30;94.90;100838.69;5327142;28;20041;-67
2023/04/28 06:17:39;;;;;;;15.57;13.83;;;;;;;10.35;95.07;100813.47;5327373;28;20028;-67
2023/04/28 06:20:12;;;;;;;15.47;13.80;;;;;;;10.36;95.16;100829.09;5327065;28;20027;-67
2023/04/28 06:22:44;;;;;;;22.35;13.73;;;;;;;10.34;95.63;100833.47;5327228;28;20036;-67
2023/04/28 06:25:15;;;;;;;20.93;14.20;;;;;;;10.42;96.44;100829.91;5327257;28;20034;-67
2023/04/28 06:27:46;;;;;;;16.30;14.60;;;;;;;10.56;96.60;100826.28;5325994;28;20494;-67
2023/04/28 06:30:20;;;;;;;19.73;14.70;;;;;;;10.62;96.31;100819.25;5327315;28;20105;-67
2023/04/28 06:32:51;;;;;;;15.98;13.50;;;;;;;10.69;96.53;100829.59;5326107;28;20032;-67
2023/04/28 06:35:22;;;;;;;16.90;13.23;;;;;;;10.76;96.69;100838.19;5326929;28;20057;-67
2023/04/28 06:37:54;;;;;;;21.23;13.90;;;;;;;10.83;96.37;100831.16;5326582;28;20053;-67
2023/04/28 06:40:25;;;;;;;17.13;13.87;;;;;;;10.90;97.16;100828.47;5327017;28;20046;-67
2023/04/28 06:42:57;;;;;;;16.70;12.47;;;;;;;10.92;97.84;100821.47;5326984;28;20055;-67
2023/04/28 06:45:28;;;;;;;21.27;13.80;;;;;;;10.91;98.45;100837.97;5326638;28;20059;-67
2023/04/28 06:48:00;;;;;;;19.50;12.67;;;;;;;10.92;98.85;100829.28;5327102;28;20066;-67
2023/04/28 06:50:31;;;;;;;15.23;12.33;;;;;;;10.95;100.00;100831.84;5326813;28;20031;-67
2023/04/28 06:53:02;;;;;;;13.97;11.80;;;;;;;10.93;100.00;100825.81;5325251;28;20380;-67
2023/04/28 06:55:34;;;;;;;15.70;12.60;;;;;;;10.96;100.00;100819.66;5326631;28;20031;-67
2023/04/28 06:58:06;;;;;;;14.23;12.73;;;;;;;10.97;100.00;100820.56;5324915;28;20031;-67
2023/04/28 07:00:37;;;;;;;15.20;13.60;;;;;;;10.92;100.00;100816.25;5326161;28;20063;-67
2023/04/28 07:03:08;;;;;;;15.03;12.00;;;;;;;10.93;100.00;100814.50;5326192;28;20416;-67
2023/04/28 07:05:40;;;;;;;18.10;12.50;;;;;;;10.98;100.00;100815.31;5325093;28;20119;-67
2023/04/28 07:08:11;;;;;;;17.23;12.53;;;;;;;11.07;100.00;100814.31;5325959;28;20032;-67
2023/04/28 07:10:42;;;;;;;14.10;12.43;;;;;;;11.24;100.00;100812.31;5326188;28;20061;-67
2023/04/28 07:13:14;;;;;;;15.97;12.73;;;;;;;11.36;100.00;100811.25;5326253;28;20475;-68
2023/04/28 07:15:45;;;;;;;22.70;12.90;;;;;;;11.48;100.00;100805.84;5326238;28;20526;-67
2023/04/28 07:18:16;;;;;;;13.80;12.07;;;;;;;11.63;100.00;100807.34;5325613;28;20034;-67
2023/04/28 07:20:48;;;;;;;13.30;11.90;;;;;;;11.65;100.00;100808.16;5326257;28;20036;-67
2023/04/28 07:23:19;;;;;;;13.97;12.40;;;;;;;11.69;100.00;100811.63;5326066;28;20039;-67
2023/04/28 07:25:50;;;;;;;19.47;12.23;;;;;;;11.75;100.00;100818.47;5359043;27;20143;-67
2023/04/28 07:28:22;;;;;;;15.67;13.80;;;;;;;11.77;100.00;100811.47;5325787;28;20422;-67
2023/04/28 07:30:53;;;;;;;17.07;13.30;;;;;;;11.83;100.00;100812.25;5325942;28;20497;-66
2023/04/28 07:33:25;;;;;;;18.47;12.03;;;;;;;11.77;100.00;100816.69;5325577;28;20509;-67
2023/04/28 07:35:56;;;;;;;19.17;11.97;;;;;;;11.86;100.00;100816.53;5325412;28;20027;-66
2023/04/28 07:38:28;;;;;;;16.93;11.40;;;;;;;11.82;100.00;100820.94;5325195;28;20506;-67
2023/04/28 07:40:59;;;;;;;12.83;11.47;;;;;;;11.83;100.00;100824.41;5324102;28;20417;-67
2023/04/28 07:43:30;;;;;;;14.90;10.97;;;;;;;11.81;100.00;100834.88;5325613;28;20031;-67
2023/04/28 07:46:02;;;;;;;13.57;11.27;;;;;;;11.90;100.00;100831.28;5323653;28;20039;-66
2023/04/28 07:48:34;;;;;;;13.53;11.50;;;;;;;11.86;100.00;100833.09;5325723;28;20038;-67
2023/04/28 07:51:05;;;;;;;19.80;12.03;;;;;;;11.77;100.00;100833.22;5324362;28;20035;-67
2023/04/28 07:53:37;;;;;;;12.70;11.37;;;;;;;11.65;100.00;100826.44;5325503;28;20385;-67
2023/04/28 07:56:08;;;;;;;16.43;13.10;;;;;;;11.62;100.00;100831.75;5324500;28;20060;-67
2023/04/28 07:58:39;;;;;;;14.17;11.53;;;;;;;11.69;100.00;100816.84;5325533;28;20460;-67
2023/04/28 08:01:11;;;;;;;13.50;12.20;;;;;;;11.62;100.00;100825.66;5324508;28;20032;-66
2023/04/28 08:03:42;;;;;;;17.23;13.00;;;;;;;11.60;100.00;100827.44;5325016;28;20085;-67
2023/04/28 08:06:14;;;;;;;16.70;15.03;;;;;;;11.57;100.00;100828.31;5324471;28;20359;-67
2023/04/28 08:08:46;;;;;;;17.00;14.00;;;;;;;11.55;100.00;100821.44;5324838;28;20085;-67
2023/04/28 08:11:17;;;;;;;17.20;15.03;;;;;;;11.60;100.00;100830.88;5324191;28;20066;-67
2023/04/28 08:13:48;;;;;;;17.67;15.90;;;;;;;11.63;100.00;100830.84;5325131;28;20081;-67
2023/04/28 08:16:21;;;;;;;16.10;14.40;;;;;;;11.73;100.00;100815.03;5322883;28;20114;-68
2023/04/28 08:18:52;;;;;;;17.30;14.88;;;;;;;11.74;100.00;100822.84;5325338;28;20032;-67
2023/04/28 08:21:24;;;;;;;16.70;14.83;;;;;;;11.78;100.00;100818.41;5323305;28;20047;-67
2023/04/28 08:23:55;;;;;;;18.80;15.87;;;;;;;11.79;100.00;100825.38;5324980;28;20035;-67
2023/04/28 08:26:27;;;;;;;17.07;15.30;;;;;;;11.79;100.00;100825.38;5325255;28;20466;-67
2023/04/28 08:28:58;;;;;;;18.90;16.97;;;;;;;11.89;100.00;100824.31;5326155;28;20051;-67
2023/04/28 08:31:30;;;;;;;18.53;15.23;;;;;;;11.97;100.00;100825.06;5329659;28;20032;-67
2023/04/28 08:34:01;;;;;;;17.67;15.80;;;;;;;12.08;100.00;100829.25;5329517;28;20516;-67
2023/04/28 08:36:32;;;;;;;17.70;15.83;;;;;;;12.13;100.00;100823.03;5329046;28;20042;-67
2023/04/28 08:39:07;;;;;;;18.20;16.10;;;;;;;12.21;100.00;100820.28;5329388;28;20031;-66
2023/04/28 08:41:39;;;;;;;18.95;16.25;;;;;;;12.44;100.00;100824.22;5329186;28;20110;-67
2023/04/28 08:44:10;;;;;;;18.00;16.30;;;;;;;12.48;100.00;100823.28;5329012;27;20410;-67
2023/04/28 08:46:43;;;;;;;18.43;16.57;;;;;;;12.56;100.00;100829.19;5311003;28;20075;-67
2023/04/28 08:49:16;;;;;;;19.98;17.65;;;;;;;12.61;100.00;100829.13;5328910;28;20031;-67
2023/04/28 08:51:58;;;;;;;18.05;16.25;;;;;;;12.76;100.00;100824.41;5329083;28;20027;-67
2023/04/28 08:54:30;;;;;;;17.80;15.70;;;;;;;12.75;100.00;100827.03;5329102;28;20024;-67
2023/04/28 08:57:03;;;;;;;19.27;17.40;;;;;;;12.66;100.00;100825.50;5328703;28;20043;-67
2023/04/28 08:59:37;;;;;;;18.40;16.48;;;;;;;12.62;100.00;100838.66;5327477;28;20471;-68
2023/04/28 09:02:09;;;;;;;18.13;16.23;;;;;;;12.55;100.00;100838.78;5328506;28;20379;-67
2023/04/28 09:04:40;;;;;;;20.40;16.30;;;;;;;12.55;100.00;100837.94;5327079;28;20032;-67
2023/04/28 09:07:13;;;;;;;19.23;17.07;;;;;;;12.53;100.00;100829.25;5322108;27;20069;-67
2023/04/28 09:09:44;;;;;;;19.00;16.35;;;;;;;12.67;100.00;100836.81;5326796;28;20458;-67
2023/04/28 09:12:17;;;;;;;20.17;17.00;;;;;;;12.72;100.00;100837.59;5328166;28;20079;-67
2023/04/28 09:14:57;;;;;;;18.15;16.08;;;;;;;12.94;100.00;100831.00;5325133;28;20110;-67
2023/04/28 09:17:28;;;;;;;18.85;16.92;;;;;;;13.14;100.00;100833.16;5327813;28;20412;-67
2023/04/28 09:20:00;;;;;;;17.80;16.07;;;;;;;13.22;100.00;100830.38;5326188;28;20031;-67
2023/04/28 09:22:32;;;;;;;16.97;15.23;;;;;;;13.17;100.00;100831.38;5326830;28;20420;-67
2023/04/28 09:25:10;;;;;;;17.37;15.60;;;;;;;13.18;100.00;100840.94;5323230;27;20060;-67
2023/04/28 09:27:41;;;;;;;16.63;15.02;;;;;;;13.23;100.00;100831.22;5327148;27;20024;-67
2023/04/28 09:30:13;;;;;;;17.27;15.57;;;;;;;13.23;100.00;100831.22;5306170;28;20032;-67
2023/04/28 09:32:44;;;;;;;20.33;17.27;;;;;;;13.22;100.00;100824.31;5321130;28;20157;-67
2023/04/28 09:35:44;;;;;;;19.17;17.20;;;;;;;13.37;100.00;100826.56;5326446;28;20043;-66
2023/04/28 09:38:16;;;;;;;18.08;16.38;;;;;;;13.38;100.00;100830.94;5327399;28;20019;-67
2023/04/28 09:40:51;;;;;;;20.30;16.85;;;;;;;13.26;100.00;100834.63;5358689;27;20027;-66
2023/04/28 09:43:28;;;;;;;19.20;17.10;;;;;;;13.24;100.00;100833.81;5328322;28;20032;-66
2023/04/28 09:46:04;;;;;;;19.88;17.75;;;;;;;13.25;100.00;100837.28;5328197;27;20061;-67
2023/04/28 09:48:37;;;;;;;22.10;19.95;;;;;;;12.97;100.00;100840.53;5327283;28;20032;-67
2023/04/28 09:51:08;;;;;;;19.40;17.65;;;;;;;12.87;100.00;100845.09;5327983;28;20051;-68
2023/04/28 09:53:40;;;;;;;22.73;20.57;;;;;;;12.88;100.00;100841.59;5326988;28;20035;-67
2023/04/28 09:56:12;;;;;;;24.00;21.47;;;;;;;12.72;100.00;100834.97;5324688;28;20028;-67
2023/04/28 09:58:46;;;;;;;25.63;23.02;;;;;;;12.71;100.00;100841.09;5327708;28;20035;-66
2023/04/28 10:01:18;;;;;;;30.35;27.05;;;;;;;12.66;100.00;100840.34;5326845;28;20035;-67
2023/04/28 10:03:52;;;;;;;37.87;31.77;;;;;;;12.66;100.00;100840.34;5325822;28;20462;-67
2023/04/28 10:06:24;;;;;;;40.70;36.10;;;;;;;12.66;100.00;100842.94;5328119;28;20031;-66
2023/04/28 10:08:57;;;;;;;41.90;37.40;;;;;;;12.69;100.00;100837.66;5325950;28;20016;-67
2023/04/28 10:11:29;;;;;;;46.50;39.28;;;;;;;12.76;100.00;100850.56;5326552;28;20030;-67
2023/04/28 10:14:01;;;;;;;47.10;39.55;;;;;;;12.92;100.00;100835.41;5307346;28;20078;-66
2023/04/28 10:16:32;;;;;;;44.00;39.30;;;;;;;13.02;100.00;100841.28;5307783;28;20044;-67
2023/04/28 10:19:04;;;;;;;43.27;38.67;;;;;;;13.20;100.00;100836.53;5306548;28;20035;-67
2023/04/28 10:21:46;;;;;;;41.63;37.20;;;;;;;13.24;100.00;100836.44;5307180;28;20020;-67
2023/04/28 10:24:29;;;;;;;41.67;37.42;;;;;;;13.28;100.00;100838.09;5306502;28;20070;-66
2023/04/28 10:27:05;;;;;;;;;;;;;;;13.43;100.00;100841.28;5308775;28;20059;-66
2023/04/28 10:29:36;;;;;;;36.85;33.03;;;;;;;13.40;100.00;100838.75;5306857;28;20325;-67
2023/04/28 10:32:20;;;;;;;38.43;34.43;;;;;;;13.46;100.00;100839.44;5308107;28;20098;-66
2023/04/28 10:34:51;;;;;;;37.78;33.83;;;;;;;13.44;100.00;100843.88;5307401;28;20028;-66
2023/04/28 10:38:07;;;;;;;35.80;32.03;;;;;;;13.56;100.00;100844.47;5307447;28;20039;-67
2023/04/28 10:40:43;;;;;;;33.70;30.42;;;;;;;13.66;100.00;100832.88;5306423;28;20032;-66
2023/04/28 10:43:23;;;;;;;31.33;28.27;;;;;;;13.89;100.00;100834.88;5306005;28;20063;-67
2023/04/28 10:45:59;;;;;;;29.92;26.92;;;;;;;14.13;100.00;100840.41;5307488;28;20028;-67
2023/04/28 10:48:31;;;;;;;27.83;25.23;;;;;;;14.14;100.00;100824.63;5306267;28;20074;-68
2023/04/28 10:51:02;;;;;;;28.70;26.00;;;;;;;14.34;100.00;100825.84;5306025;28;20029;-66
2023/04/28 10:53:47;;;;;;;28.67;25.90;;;;;;;14.49;100.00;100830.69;5305656;28;20115;-67
2023/04/28 10:56:22;;;;;;;26.95;24.45;;;;;;;14.52;100.00;100827.09;5305165;28;20047;-67
2023/04/28 10:58:55;;;;;;;26.05;23.75;;;;;;;14.61;100.00;100820.75;5304710;28;20107;-67
2023/04/28 11:01:28;;;;;;;23.48;21.25;;;;;;;14.70;100.00;100825.72;5305315;28;20115;-67
2023/04/28 11:04:12;;;;;;;23.40;21.40;;;;;;;14.76;100.00;100825.53;5304702;28;20112;-66
2023/04/28 11:06:45;;;;;;;21.95;19.90;;;;;;;15.02;100.00;100819.53;5304970;28;20487;-66
2023/04/28 11:09:17;;;;;;;22.42;20.42;;;;;;;15.01;100.00;100814.34;5304341;28;20529;-66
2023/04/28 11:12:10;;;;;;;20.43;18.70;;;;;;;15.15;100.00;100814.75;5307924;28;20047;-67
2023/04/28 11:14:41;;;;;;;20.20;18.40;;;;;;;15.21;100.00;100811.91;5325747;28;20024;-67
2023/04/28 11:17:15;;;;;;;18.90;17.20;;;;;;;15.13;98.22;100816.56;5326149;28;20570;-67
2023/04/28 11:19:50;;;;;;;18.67;16.98;;;;;;;15.03;97.93;100810.72;5323718;28;20032;-68
2023/04/28 11:22:22;;;;;;;17.80;16.27;;;;;;;15.11;97.58;100819.22;5323527;27;20042;-67
2023/04/28 11:24:58;;;;;;;;;;;;;;;15.30;97.77;100814.25;5324996;28;20024;-67
2023/04/28 11:27:31;;;;;;;17.10;15.63;;;;;;;15.08;97.24;100815.84;5324333;28;20382;-67
2023/04/28 11:30:04;;;;;;;18.20;16.60;;;;;;;15.06;97.63;100817.66;5324741;28;20138;-67
2023/04/28 11:32:38;;;;;;;18.00;16.40;;;;;;;14.97;97.79;100810.06;5325193;28;20038;-67
2023/04/28 11:35:09;;;;;;;18.95;17.05;;;;;;;14.84;98.65;100818.31;5323502;28;20039;-67